Time;durP1;ratioP1;P1;durP2;ratioP2;P2;SDS_P1;SDS_P2;PMS_P1;PMS_P2;Temp;Humidity;BMP_temperature;BMP_pressure;BME280_temperature;BME280_humidity;BME280_pressure;Samples;Min_cycle;Max_cycle;Signal;HPM_P1;HPM_P2
2021/05/25 00:01:00;;;;;;;2.47;1.20;;;;;;;;;;4992956;28;20046;-60
2021/05/25 00:03:27;;;;;;;1.20;0.90;;;;;;;;;;4992524;28;20057;-51
2021/05/25 00:05:54;;;;;;;2.97;1.00;;;;;;;;;;4992537;28;20046;-49
2021/05/25 00:08:20;;;;;;;2.08;1.00;;;;;;;;;;4992364;28;20049;-49
2021/05/25 00:10:47;;;;;;;1.08;0.85;;;;;;;;;;4992890;28;20050;-48
2021/05/25 00:13:14;;;;;;;2.13;0.90;;;;;;;;;;4992834;28;20061;-48
2021/05/25 00:15:41;;;;;;;2.28;1.20;;;;;;;;;;4996450;28;20057;-50
2021/05/25 00:18:08;;;;;;;2.13;1.25;;;;;;;;;;5011349;28;20053;-52
2021/05/25 00:20:35;;;;;;;2.10;1.05;;;;;;;;;;5012337;28;20427;-47
2021/05/25 00:23:02;;;;;;;1.50;1.10;;;;;;;;;;5012004;28;20054;-48
2021/05/25 00:25:32;;;;;;;1.48;0.95;;;;;;;;;;5022090;28;20084;-47
2021/05/25 00:27:58;;;;;;;2.47;0.90;;;;;;;;;;4991413;28;20046;-49
2021/05/25 00:30:26;;;;;;;2.08;1.17;;;;;;;;;;4992261;28;20058;-49
2021/05/25 00:32:53;;;;;;;2.45;1.10;;;;;;;;;;4992343;28;20058;-49
2021/05/25 00:35:20;;;;;;;1.45;0.90;;;;;;;;;;4992284;28;20062;-47
2021/05/25 00:37:48;;;;;;;1.58;0.90;;;;;;;;;;4991349;28;20054;-51
2021/05/25 00:40:15;;;;;;;1.38;0.88;;;;;;;;;;5007930;28;20054;-50
2021/05/25 00:42:43;;;;;;;2.15;1.58;;;;;;;;;;5005422;28;20054;-50
2021/05/25 00:45:10;;;;;;;2.30;0.93;;;;;;;;;;5009854;28;20080;-53
2021/05/25 00:47:37;;;;;;;1.17;0.88;;;;;;;;;;4997013;28;20050;-51
2021/05/25 00:50:12;;;;;;;1.92;1.05;;;;;;;;;;5007347;28;20057;-49
2021/05/25 00:52:42;;;;;;;2.83;1.42;;;;;;;;;;4992442;28;20081;-51
2021/05/25 00:55:11;;;;;;;1.80;1.00;;;;;;;;;;4992170;28;20081;-50
2021/05/25 00:57:38;;;;;;;1.83;1.05;;;;;;;;;;4991374;28;20084;-48
2021/05/25 01:00:06;;;;;;;4.88;0.95;;;;;;;;;;4992026;28;20081;-47
2021/05/25 01:02:34;;;;;;;2.85;1.00;;;;;;;;;;4992008;28;20057;-51
2021/05/25 01:05:03;;;;;;;4.50;0.98;;;;;;;;;;4992120;28;20046;-51
2021/05/25 01:07:30;;;;;;;3.58;1.05;;;;;;;;;;4990971;28;20074;-52
2021/05/25 01:09:59;;;;;;;1.73;1.00;;;;;;;;;;5006945;28;20051;-49
2021/05/25 01:12:31;;;;;;;1.63;0.80;;;;;;;;;;4992143;28;20046;-50
2021/05/25 01:15:04;;;;;;;1.67;0.90;;;;;;;;;;4991106;28;20054;-53
2021/05/25 01:17:31;;;;;;;1.77;0.73;;;;;;;;;;4990772;28;20420;-49
2021/05/25 01:19:59;;;;;;;3.85;0.95;;;;;;;;;;4992008;28;20055;-52
2021/05/25 01:22:33;;;;;;;1.35;0.90;;;;;;;;;;5006173;28;20424;-50
2021/05/25 01:25:00;;;;;;;4.50;1.05;;;;;;;;;;5007004;28;20043;-51
2021/05/25 01:27:27;;;;;;;2.00;0.90;;;;;;;;;;4990749;28;20046;-52
2021/05/25 01:29:54;;;;;;;3.10;1.13;;;;;;;;;;4991631;28;20054;-49
2021/05/25 01:32:20;;;;;;;4.65;0.85;;;;;;;;;;4990625;28;20047;-49
2021/05/25 01:34:47;;;;;;;2.15;0.80;;;;;;;;;;4991473;28;20411;-53
2021/05/25 01:37:14;;;;;;;2.42;0.90;;;;;;;;;;4991652;28;20060;-50
2021/05/25 01:39:41;;;;;;;3.50;0.80;;;;;;;;;;5002528;28;20050;-52
2021/05/25 01:42:08;;;;;;;0.93;0.63;;;;;;;;;;5005522;28;20072;-50
2021/05/25 01:44:36;;;;;;;2.05;0.70;;;;;;;;;;5003315;28;20113;-48
2021/05/25 01:47:03;;;;;;;1.23;0.73;;;;;;;;;;4990765;28;20046;-50
2021/05/25 01:49:30;;;;;;;1.40;0.82;;;;;;;;;;4991519;28;20053;-53
2021/05/25 01:51:57;;;;;;;1.77;0.90;;;;;;;;;;4991689;28;20400;-52
2021/05/25 01:54:23;;;;;;;5.07;0.98;;;;;;;;;;4991487;28;20091;-54
2021/05/25 01:56:50;;;;;;;4.22;0.85;;;;;;;;;;4990713;28;20074;-54
2021/05/25 01:59:21;;;;;;;2.40;0.90;;;;;;;;;;4991372;28;20577;-49
2021/05/25 02:01:48;;;;;;;4.30;1.10;;;;;;;;;;4990834;28;20089;-50
2021/05/25 02:04:15;;;;;;;2.20;0.90;;;;;;;;;;4995098;28;20050;-54
2021/05/25 02:06:42;;;;;;;1.73;0.70;;;;;;;;;;4993896;28;20050;-54
2021/05/25 02:09:09;;;;;;;2.08;0.88;;;;;;;;;;4994960;28;20397;-49
2021/05/25 02:11:36;;;;;;;4.03;0.88;;;;;;;;;;4993969;28;20050;-52
2021/05/25 02:14:03;;;;;;;1.65;0.80;;;;;;;;;;4994810;28;20050;-52
2021/05/25 02:16:30;;;;;;;2.28;0.90;;;;;;;;;;4993772;28;20516;-54
2021/05/25 02:18:57;;;;;;;2.45;0.90;;;;;;;;;;4994619;28;20054;-53
2021/05/25 02:21:24;;;;;;;3.20;0.80;;;;;;;;;;4995208;28;20054;-53
2021/05/25 02:23:51;;;;;;;1.95;0.80;;;;;;;;;;4994632;28;20141;-54
2021/05/25 02:26:18;;;;;;;2.47;0.73;;;;;;;;;;4993123;28;20058;-55
2021/05/25 02:28:45;;;;;;;2.83;0.90;;;;;;;;;;4994217;28;20100;-56
2021/05/25 02:31:13;;;;;;;3.80;0.93;;;;;;;;;;4994877;28;20057;-53
2021/05/25 02:33:41;;;;;;;4.05;1.10;;;;;;;;;;4994716;28;20046;-54
2021/05/25 02:36:08;;;;;;;2.22;0.93;;;;;;;;;;4994664;28;20476;-56
2021/05/25 02:38:36;;;;;;;3.30;0.88;;;;;;;;;;4993867;28;20057;-55
2021/05/25 02:41:03;;;;;;;6.72;0.90;;;;;;;;;;5001223;28;20517;-54
2021/05/25 02:43:30;;;;;;;2.67;0.80;;;;;;;;;;5005573;28;20061;-52
2021/05/25 02:45:57;;;;;;;3.53;0.95;;;;;;;;;;4995914;28;20104;-55
2021/05/25 02:48:24;;;;;;;3.55;0.98;;;;;;;;;;4993689;28;20370;-54
2021/05/25 02:50:51;;;;;;;4.15;1.15;;;;;;;;;;4994369;28;20046;-54
2021/05/25 02:53:18;;;;;;;3.70;1.02;;;;;;;;;;4994213;28;20535;-53
2021/05/25 02:55:45;;;;;;;3.42;0.80;;;;;;;;;;4992932;28;20057;-56
2021/05/25 02:58:12;;;;;;;3.55;1.00;;;;;;;;;;4993798;28;20048;-55
2021/05/25 03:00:40;;;;;;;2.78;0.90;;;;;;;;;;4993496;28;20104;-53
2021/05/25 03:03:08;;;;;;;3.78;1.15;;;;;;;;;;4994044;28;20050;-52
2021/05/25 03:05:35;;;;;;;5.03;0.98;;;;;;;;;;4993538;28;20128;-54
2021/05/25 03:08:03;;;;;;;7.72;1.80;;;;;;;;;;4992881;28;20488;-51
2021/05/25 03:10:32;;;;;;;8.13;1.73;;;;;;;;;;4993872;28;20440;-51
2021/05/25 03:12:59;;;;;;;6.45;1.45;;;;;;;;;;4993492;28;20052;-55
2021/05/25 03:15:28;;;;;;;5.07;1.00;;;;;;;;;;4993221;28;20053;-51
2021/05/25 03:17:55;;;;;;;1.17;0.70;;;;;;;;;;4992875;28;20055;-52
2021/05/25 03:20:22;;;;;;;4.65;1.10;;;;;;;;;;4993841;28;20070;-54
2021/05/25 03:22:49;;;;;;;6.07;1.02;;;;;;;;;;4993603;28;20104;-54
2021/05/25 03:25:16;;;;;;;6.38;1.20;;;;;;;;;;4992972;28;20472;-50
2021/05/25 03:27:43;;;;;;;3.92;1.48;;;;;;;;;;4992822;28;20112;-56
2021/05/25 03:30:12;;;;;;;5.28;2.05;;;;;;;;;;4993824;28;20409;-50
2021/05/25 03:32:39;;;;;;;4.13;0.90;;;;;;;;;;4992296;28;20457;-53
2021/05/25 03:35:07;;;;;;;2.75;1.00;;;;;;;;;;4993481;28;20144;-54
2021/05/25 03:37:35;;;;;;;3.22;1.15;;;;;;;;;;4992234;28;20050;-54
2021/05/25 03:40:03;;;;;;;3.72;1.10;;;;;;;;;;4993215;28;20058;-52
2021/05/25 03:42:30;;;;;;;6.28;1.58;;;;;;;;;;5022267;28;20070;-54
2021/05/25 03:44:59;;;;;;;4.15;1.20;;;;;;;;;;5009075;28;20398;-54
2021/05/25 03:47:26;;;;;;;4.53;1.00;;;;;;;;;;5012183;28;20052;-56
2021/05/25 03:49:53;;;;;;;3.67;1.38;;;;;;;;;;5012547;28;20076;-56
2021/05/25 03:52:21;;;;;;;7.05;1.77;;;;;;;;;;5010988;28;20050;-52
2021/05/25 03:54:59;;;;;;;3.65;1.15;;;;;;;;;;4993501;28;20084;-54
2021/05/25 03:59:55;;;;;;;7.70;1.20;;;;;;;;;;5008024;28;20411;-52
2021/05/25 04:02:22;;;;;;;2.60;0.98;;;;;;;;;;4993119;28;20062;-55
2021/05/25 04:04:49;;;;;;;4.80;1.30;;;;;;;;;;4992969;28;20054;-52
2021/05/25 04:07:16;;;;;;;14.77;4.63;;;;;;;;;;5024373;23;20056;-52
2021/05/25 04:09:43;;;;;;;20.65;7.38;;;;;;;;;;5032060;28;20041;-49
2021/05/25 04:12:10;;;;;;;10.98;4.63;;;;;;;;;;5032093;28;20414;-50
2021/05/25 04:14:37;;;;;;;4.85;1.48;;;;;;;;;;5022338;28;20073;-49
2021/05/25 04:17:04;;;;;;;3.80;1.30;;;;;;;;;;5011586;28;20058;-51
2021/05/25 04:19:31;;;;;;;5.13;1.23;;;;;;;;;;5012171;28;20054;-55
2021/05/25 04:21:58;;;;;;;4.35;1.65;;;;;;;;;;5011986;28;20076;-50
2021/05/25 04:24:24;;;;;;;3.47;1.30;;;;;;;;;;5012197;28;20054;-49
2021/05/25 04:26:51;;;;;;;2.15;1.00;;;;;;;;;;5010835;28;20092;-49
2021/05/25 04:29:18;;;;;;;3.53;1.00;;;;;;;;;;5011543;28;20077;-52
2021/05/25 04:31:45;;;;;;;4.15;1.27;;;;;;;;;;5011756;28;20466;-51
2021/05/25 04:34:13;;;;;;;2.78;1.00;;;;;;;;;;5011766;28;20050;-52
2021/05/25 04:36:39;;;;;;;2.08;0.82;;;;;;;;;;5010842;28;20046;-49
2021/05/25 04:39:06;;;;;;;2.45;0.98;;;;;;;;;;5011892;28;20196;-49
2021/05/25 04:41:33;;;;;;;2.25;0.80;;;;;;;;;;5023043;28;20057;-49
2021/05/25 04:44:00;;;;;;;7.65;1.15;;;;;;;;;;5023389;28;20409;-48
2021/05/25 04:46:28;;;;;;;4.32;1.10;;;;;;;;;;5029433;28;20053;-51
2021/05/25 04:48:55;;;;;;;2.65;0.73;;;;;;;;;;5027525;28;20095;-51
2021/05/25 04:51:22;;;;;;;2.13;0.90;;;;;;;;;;5031780;28;20111;-49
2021/05/25 04:53:49;;;;;;;3.60;0.90;;;;;;;;;;5017072;28;20050;-49
2021/05/25 04:56:16;;;;;;;2.08;0.80;;;;;;;;;;5011408;28;20073;-48
2021/05/25 04:58:43;;;;;;;5.15;1.00;;;;;;;;;;5017893;28;20136;-53
2021/05/25 05:01:10;;;;;;;3.30;0.95;;;;;;;;;;5031250;28;20053;-52
2021/05/25 05:03:41;;;;;;;2.20;0.88;;;;;;;;;;5031476;28;20046;-49
2021/05/25 05:06:08;;;;;;;3.70;1.08;;;;;;;;;;5010702;28;20483;-51
2021/05/25 05:08:34;;;;;;;5.80;1.65;;;;;;;;;;5010942;28;20116;-51
2021/05/25 05:11:01;;;;;;;2.55;0.90;;;;;;;;;;5011772;28;20073;-50
2021/05/25 05:13:28;;;;;;;2.30;0.77;;;;;;;;;;5011403;28;20054;-47
2021/05/25 05:15:55;;;;;;;3.03;0.93;;;;;;;;;;5022922;28;20503;-52
2021/05/25 05:18:22;;;;;;;3.13;0.95;;;;;;;;;;5018297;28;20096;-48
2021/05/25 05:20:49;;;;;;;6.15;0.90;;;;;;;;;;5010781;28;20042;-49
2021/05/25 05:23:17;;;;;;;3.22;0.90;;;;;;;;;;4994426;28;20050;-51
2021/05/25 05:25:44;;;;;;;3.70;1.40;;;;;;;;;;4978533;28;20050;-51
2021/05/25 05:28:10;;;;;;;2.75;0.88;;;;;;;;;;5023835;28;20046;-50
2021/05/25 05:30:37;;;;;;;4.25;0.82;;;;;;;;;;5012004;28;20049;-52
2021/05/25 05:33:06;;;;;;;2.22;0.73;;;;;;;;;;5012024;28;20073;-50
2021/05/25 05:35:33;;;;;;;7.88;1.55;;;;;;;;;;5011710;28;20049;-53
2021/05/25 05:38:00;;;;;;;2.28;0.80;;;;;;;;;;5016219;28;20415;-52
2021/05/25 05:40:27;;;;;;;4.55;1.90;;;;;;;;;;5017724;28;20050;-49
2021/05/25 05:43:05;;;;;;;2.97;0.88;;;;;;;;;;5035625;28;20053;-49
2021/05/25 05:45:33;;;;;;;5.63;1.10;;;;;;;;;;5035740;28;20074;-48
2021/05/25 05:47:59;;;;;;;1.65;0.70;;;;;;;;;;5031616;28;20041;-54
2021/05/25 05:50:26;;;;;;;2.75;1.35;;;;;;;;;;5017241;28;20099;-51
2021/05/25 05:52:53;;;;;;;6.00;0.98;;;;;;;;;;5034617;28;20053;-50
2021/05/25 05:55:20;;;;;;;2.33;0.95;;;;;;;;;;5034785;28;20045;-49
2021/05/25 05:57:47;;;;;;;5.00;1.20;;;;;;;;;;5030040;28;20048;-50
2021/05/25 06:00:15;;;;;;;2.95;1.00;;;;;;;;;;5030505;28;20061;-48
2021/05/25 06:02:42;;;;;;;3.90;1.00;;;;;;;;;;5034406;28;20053;-48
2021/05/25 06:05:10;;;;;;;3.90;0.90;;;;;;;;;;5035158;28;20057;-50
2021/05/25 06:07:37;;;;;;;3.35;0.88;;;;;;;;;;5010325;28;20050;-51
2021/05/25 06:10:05;;;;;;;4.22;0.90;;;;;;;;;;5015089;28;20050;-50
2021/05/25 06:12:32;;;;;;;3.92;0.90;;;;;;;;;;5015352;28;20052;-48
2021/05/25 06:15:00;;;;;;;2.50;0.90;;;;;;;;;;5014862;28;20390;-49
2021/05/25 06:17:27;;;;;;;3.45;1.00;;;;;;;;;;5014906;28;20140;-47
2021/05/25 06:19:54;;;;;;;3.67;1.00;;;;;;;;;;5014981;28;20441;-46
2021/05/25 06:22:22;;;;;;;6.70;1.17;;;;;;;;;;5015103;28;21733;-49
2021/05/25 06:24:49;;;;;;;6.65;1.10;;;;;;;;;;5021848;28;20053;-46
2021/05/25 06:27:16;;;;;;;2.80;0.95;;;;;;;;;;5031069;28;20445;-50
2021/05/25 06:29:44;;;;;;;4.68;1.10;;;;;;;;;;5021576;28;20145;-51
2021/05/25 06:32:11;;;;;;;5.30;1.33;;;;;;;;;;5024098;28;20495;-51
2021/05/25 06:34:37;;;;;;;7.00;1.58;;;;;;;;;;5022009;28;20084;-47
2021/05/25 06:37:04;;;;;;;5.15;0.93;;;;;;;;;;5023289;28;20334;-46
2021/05/25 06:39:32;;;;;;;4.35;0.88;;;;;;;;;;5025470;28;20133;-47
2021/05/25 06:41:59;;;;;;;4.85;1.10;;;;;;;;;;5031157;28;20049;-51
2021/05/25 06:44:26;;;;;;;4.18;1.40;;;;;;;;;;5029207;28;20061;-48
2021/05/25 06:46:53;;;;;;;7.70;1.60;;;;;;;;;;5025115;28;20045;-52
2021/05/25 06:49:20;;;;;;;3.83;1.25;;;;;;;;;;5033063;28;20049;-50
2021/05/25 06:51:47;;;;;;;5.13;1.10;;;;;;;;;;5000560;28;20108;-55
2021/05/25 06:54:14;;;;;;;4.47;1.20;;;;;;;;;;5014106;28;20422;-54
2021/05/25 06:56:41;;;;;;;3.88;0.90;;;;;;;;;;5027308;28;20062;-48
2021/05/25 06:59:08;;;;;;;3.10;0.93;;;;;;;;;;5020226;28;20053;-50
2021/05/25 07:01:36;;;;;;;5.90;1.13;;;;;;;;;;5025646;28;20054;-50
2021/05/25 07:04:03;;;;;;;4.00;1.05;;;;;;;;;;5023509;28;20053;-51
2021/05/25 07:06:30;;;;;;;5.65;1.25;;;;;;;;;;5032462;28;20091;-49
2021/05/25 07:08:57;;;;;;;5.55;0.90;;;;;;;;;;5031337;28;20053;-53
2021/05/25 07:11:24;;;;;;;3.55;0.93;;;;;;;;;;5004902;28;20144;-50
2021/05/25 07:13:51;;;;;;;5.88;0.95;;;;;;;;;;5027189;28;20663;-47
2021/05/25 07:16:18;;;;;;;1.88;0.70;;;;;;;;;;5032351;28;20049;-47
2021/05/25 07:18:45;;;;;;;5.10;0.90;;;;;;;;;;5025469;28;20069;-48
2021/05/25 07:21:12;;;;;;;1.92;0.80;;;;;;;;;;5013592;28;20109;-50
2021/05/25 07:23:39;;;;;;;2.90;0.90;;;;;;;;;;5022444;28;20075;-49
2021/05/25 07:26:06;;;;;;;3.33;0.90;;;;;;;;;;5031349;28;20490;-53
2021/05/25 07:28:33;;;;;;;2.47;0.70;;;;;;;;;;5006448;28;20049;-49
2021/05/25 07:31:00;;;;;;;3.75;0.75;;;;;;;;;;5023449;28;20081;-51
2021/05/25 07:33:27;;;;;;;2.95;0.70;;;;;;;;;;5024493;28;20555;-48
2021/05/25 07:35:54;;;;;;;4.30;0.80;;;;;;;;;;5022650;28;20057;-47
2021/05/25 07:38:21;;;;;;;3.03;0.77;;;;;;;;;;5026658;28;20053;-48
2021/05/25 07:40:48;;;;;;;4.32;0.88;;;;;;;;;;5022792;28;20057;-50
2021/05/25 07:43:15;;;;;;;3.15;0.80;;;;;;;;;;5024951;28;20740;-48
2021/05/25 07:45:44;;;;;;;5.07;1.27;;;;;;;;;;5026245;28;20050;-51
2021/05/25 07:48:11;;;;;;;4.95;0.82;;;;;;;;;;5025190;28;20049;-49
2021/05/25 07:50:39;;;;;;;3.13;0.90;;;;;;;;;;5024003;28;20069;-50
2021/05/25 07:53:06;;;;;;;4.00;0.93;;;;;;;;;;5024292;28;20049;-48
2021/05/25 07:55:33;;;;;;;4.65;0.90;;;;;;;;;;5024798;28;20403;-49
2021/05/25 07:58:01;;;;;;;2.88;0.80;;;;;;;;;;5024554;28;20053;-50
2021/05/25 08:00:29;;;;;;;6.10;0.98;;;;;;;;;;5024241;28;20616;-47
2021/05/25 08:02:57;;;;;;;2.65;1.05;;;;;;;;;;5027936;28;20103;-53
2021/05/25 08:05:33;;;;;;;3.35;1.42;;;;;;;;;;5007322;28;20057;-51
2021/05/25 08:08:02;;;;;;;6.13;1.95;;;;;;;;;;5020064;28;20807;-50
2021/05/25 08:10:30;;;;;;;3.95;0.90;;;;;;;;;;5031350;28;20462;-51
2021/05/25 08:12:57;;;;;;;3.88;0.93;;;;;;;;;;5031953;28;20053;-54
2021/05/25 08:15:26;;;;;;;3.22;1.02;;;;;;;;;;5027408;28;20071;-57
2021/05/25 08:20:38;;;;;;;4.10;0.80;;;;;;;;;;5031337;28;20463;-53
2021/05/25 08:23:25;;;;;;;3.50;1.08;;;;;;;;;;5021442;28;20050;-49
2021/05/25 08:25:52;;;;;;;1.92;0.60;;;;;;;;;;5025451;28;20092;-53
2021/05/25 08:28:19;;;;;;;2.75;0.60;;;;;;;;;;5023961;28;20115;-50
2021/05/25 08:30:46;;;;;;;2.80;1.00;;;;;;;;;;5025822;28;20049;-55
2021/05/25 08:33:15;;;;;;;2.67;0.80;;;;;;;;;;5029323;28;20046;-46
2021/05/25 08:35:44;;;;;;;3.97;0.60;;;;;;;;;;5023407;28;20050;-47
2021/05/25 08:38:13;;;;;;;2.45;0.80;;;;;;;;;;5002668;28;20045;-51
2021/05/25 08:40:41;;;;;;;6.50;1.00;;;;;;;;;;5024346;28;20049;-54
2021/05/25 08:43:08;;;;;;;5.22;1.73;;;;;;;;;;5007444;28;20477;-54
2021/05/25 08:45:34;;;;;;;4.25;1.00;;;;;;;;;;5023174;28;20056;-54
2021/05/25 08:48:01;;;;;;;3.08;0.70;;;;;;;;;;5025703;28;20056;-49
2021/05/25 08:50:47;;;;;;;4.60;0.90;;;;;;;;;;5028155;28;20571;-53
2021/05/25 08:53:14;;;;;;;3.22;0.85;;;;;;;;;;5006921;28;20525;-54
2021/05/25 08:55:46;;;;;;;3.88;0.85;;;;;;;;;;5008020;28;20048;-54
2021/05/25 08:58:13;;;;;;;4.10;0.90;;;;;;;;;;5021886;28;20041;-51
2021/05/25 09:00:40;;;;;;;4.90;0.90;;;;;;;;;;5024758;28;20049;-53
2021/05/25 09:03:07;;;;;;;5.63;1.02;;;;;;;;;;5023549;28;20476;-54
2021/05/25 09:05:34;;;;;;;6.88;1.88;;;;;;;;;;5024822;28;22500;-51
2021/05/25 09:08:01;;;;;;;5.35;0.68;;;;;;;;;;5005223;28;20046;-50
2021/05/25 09:10:43;;;;;;;2.15;0.70;;;;;;;;;;5029558;28;20111;-51
2021/05/25 09:13:12;;;;;;;4.15;1.00;;;;;;;;;;5024157;28;20060;-46
2021/05/25 09:15:42;;;;;;;5.97;1.42;;;;;;;;;;5011593;28;20053;-52
2021/05/25 09:18:10;;;;;;;0.88;0.50;;;;;;;;;;5020933;28;20065;-51
2021/05/25 09:20:40;;;;;;;2.47;0.80;;;;;;;;;;5023471;28;20514;-50
2021/05/25 09:23:07;;;;;;;2.30;0.68;;;;;;;;;;5022592;28;20053;-51
2021/05/25 09:25:34;;;;;;;2.10;0.60;;;;;;;;;;5022295;28;20100;-50
2021/05/25 09:28:10;;;;;;;2.13;1.10;;;;;;;;;;5001645;28;20399;-46
2021/05/25 09:30:37;;;;;;;5.68;0.88;;;;;;;;;;5029723;28;20842;-45
2021/05/25 09:33:05;;;;;;;5.00;0.90;;;;;;;;;;5029049;28;20048;-53
2021/05/25 09:35:34;;;;;;;2.08;0.70;;;;;;;;;;5024240;28;20046;-49
2021/05/25 09:38:07;;;;;;;5.80;1.27;;;;;;;;;;5019009;28;20046;-54
2021/05/25 09:40:35;;;;;;;2.63;0.60;;;;;;;;;;5023163;28;20080;-52
2021/05/25 09:43:29;;;;;;;2.17;0.70;;;;;;;;;;5007521;28;20457;-51
2021/05/25 09:46:00;;;;;;;3.28;0.70;;;;;;;;;;5019180;28;20717;-53
2021/05/25 09:48:32;;;;;;;3.00;0.70;;;;;;;;;;5023495;28;20099;-53
2021/05/25 09:50:59;;;;;;;3.42;1.30;;;;;;;;;;5017052;28;20061;-54
2021/05/25 09:53:31;;;;;;;3.08;0.65;;;;;;;;;;5022512;28;20097;-50
2021/05/25 09:55:59;;;;;;;2.25;0.60;;;;;;;;;;5023252;28;20046;-54
2021/05/25 09:58:32;;;;;;;2.13;0.60;;;;;;;;;;5019005;28;21201;-55
2021/05/25 10:00:59;;;;;;;;;;;;;;;;;;5022191;28;20053;-51
2021/05/25 10:03:26;;;;;;;3.53;0.50;;;;;;;;;;5022685;28;19967;-51
2021/05/25 10:05:54;;;;;;;5.28;1.08;;;;;;;;;;5020256;28;20160;-55
2021/05/25 10:08:22;;;;;;;3.33;0.70;;;;;;;;;;5006902;28;20057;-58
2021/05/25 10:10:56;;;;;;;3.85;0.73;;;;;;;;;;5019346;28;20061;-55
2021/05/25 10:13:24;;;;;;;4.20;0.85;;;;;;;;;;5021725;28;20092;-58
2021/05/25 10:15:53;;;;;;;2.63;0.60;;;;;;;;;;5017589;28;20112;-59
2021/05/25 10:21:07;;;;;;;1.75;0.68;;;;;;;;;;5013836;28;20124;-57
2021/05/25 10:23:35;;;;;;;4.10;0.57;;;;;;;;;;5027128;28;20144;-54
2021/05/25 10:26:03;;;;;;;2.42;0.60;;;;;;;;;;5027600;28;20945;-51
2021/05/25 10:28:31;;;;;;;2.30;0.63;;;;;;;;;;5024350;28;20057;-50
2021/05/25 10:30:58;;;;;;;3.67;0.70;;;;;;;;;;5033072;28;20046;-56
2021/05/25 10:33:27;;;;;;;3.15;0.60;;;;;;;;;;5029396;28;20053;-52
2021/05/25 10:36:01;;;;;;;6.65;1.38;;;;;;;;;;5011716;28;20052;-50
2021/05/25 10:38:28;;;;;;;2.58;0.60;;;;;;;;;;5027964;28;20087;-50
2021/05/25 10:40:57;;;;;;;2.65;0.88;;;;;;;;;;5012186;28;20051;-51
2021/05/25 10:43:32;;;;;;;3.38;0.70;;;;;;;;;;5020051;28;20054;-55
2021/05/25 10:46:12;;;;;;;3.80;0.90;;;;;;;;;;5024182;28;20081;-54
2021/05/25 10:48:47;;;;;;;1.30;0.40;;;;;;;;;;5027229;28;20486;-50
2021/05/25 10:51:14;;;;;;;3.80;1.10;;;;;;;;;;5024810;28;20054;-50
2021/05/25 10:53:41;;;;;;;2.70;0.75;;;;;;;;;;5033797;28;20049;-52
2021/05/25 10:56:23;;;;;;;2.17;0.70;;;;;;;;;;5025506;28;20103;-50
2021/05/25 10:59:00;;;;;;;1.83;0.60;;;;;;;;;;5026066;28;20136;-49
2021/05/25 11:01:30;;;;;;;5.68;0.60;;;;;;;;;;5007925;28;20057;-52
2021/05/25 11:04:06;;;;;;;5.68;1.00;;;;;;;;;;5030451;28;20410;-50
2021/05/25 11:06:36;;;;;;;5.65;0.80;;;;;;;;;;5012540;28;20049;-53
2021/05/25 11:09:21;;;;;;;2.53;0.75;;;;;;;;;;5027688;28;20053;-48
2021/05/25 11:12:06;;;;;;;1.77;0.60;;;;;;;;;;5005550;28;20076;-57
2021/05/25 11:14:33;;;;;;;2.10;0.70;;;;;;;;;;5026127;28;20072;-54
2021/05/25 11:17:19;;;;;;;4.43;0.60;;;;;;;;;;5008027;28;20053;-52
2021/05/25 11:19:57;;;;;;;3.35;0.77;;;;;;;;;;5023832;28;20049;-53
2021/05/25 11:22:39;;;;;;;5.13;0.73;;;;;;;;;;5024352;28;21016;-55
2021/05/25 11:25:07;;;;;;;2.88;1.15;;;;;;;;;;5025869;28;20053;-57
2021/05/25 11:27:45;;;;;;;2.25;0.68;;;;;;;;;;5022235;28;20359;-50
2021/05/25 11:30:20;;;;;;;3.72;0.88;;;;;;;;;;5023080;28;20057;-53
2021/05/25 11:32:50;;;;;;;2.15;0.70;;;;;;;;;;5025984;28;20041;-56
2021/05/25 11:35:21;;;;;;;2.45;0.70;;;;;;;;;;5024583;28;20129;-49
2021/05/25 11:37:53;;;;;;;2.97;0.75;;;;;;;;;;5022989;28;20421;-48
2021/05/25 11:40:21;;;;;;;1.75;0.80;;;;;;;;;;5007303;28;20124;-52
2021/05/25 11:42:49;;;;;;;2.58;0.60;;;;;;;;;;5024868;28;20053;-53
2021/05/25 11:45:22;;;;;;;1.30;0.57;;;;;;;;;;5023874;28;20096;-52
2021/05/25 11:47:53;;;;;;;3.05;0.52;;;;;;;;;;5003932;28;20045;-51
2021/05/25 11:50:20;;;;;;;2.15;0.75;;;;;;;;;;5024939;28;20446;-52
2021/05/25 11:53:00;;;;;;;1.48;0.55;;;;;;;;;;5023318;28;20175;-51
2021/05/25 11:55:27;;;;;;;2.63;0.88;;;;;;;;;;5024420;28;20870;-57
2021/05/25 11:57:55;;;;;;;1.85;0.60;;;;;;;;;;5023028;28;20076;-55
2021/05/25 12:00:22;;;;;;;1.90;0.63;;;;;;;;;;5024952;28;20051;-57
2021/05/25 12:02:50;;;;;;;2.45;0.63;;;;;;;;;;5026576;28;20477;-50
2021/05/25 12:05:30;;;;;;;3.03;1.05;;;;;;;;;;5026860;28;20057;-53
2021/05/25 12:08:01;;;;;;;4.13;0.80;;;;;;;;;;5022236;28;20406;-53
2021/05/25 12:10:32;;;;;;;1.88;0.60;;;;;;;;;;5025886;28;20080;-53
2021/05/25 12:13:06;;;;;;;7.90;0.80;;;;;;;;;;5024114;28;20142;-51
2021/05/25 12:15:37;;;;;;;3.15;0.95;;;;;;;;;;5020608;28;20137;-56
2021/05/25 12:18:08;;;;;;;3.28;0.80;;;;;;;;;;5021274;28;20099;-56
2021/05/25 12:20:37;;;;;;;1.85;0.82;;;;;;;;;;5025950;28;20135;-56
2021/05/25 12:23:08;;;;;;;1.77;0.70;;;;;;;;;;5025172;28;20099;-50
2021/05/25 12:25:35;;;;;;;2.95;0.80;;;;;;;;;;5025682;28;20049;-49
2021/05/25 12:28:10;;;;;;;2.80;0.90;;;;;;;;;;5021623;28;20359;-50
2021/05/25 12:30:39;;;;;;;4.85;0.73;;;;;;;;;;5025815;28;20045;-53
2021/05/25 12:33:06;;;;;;;3.15;0.77;;;;;;;;;;5007903;28;20056;-50
2021/05/25 12:35:34;;;;;;;7.35;1.00;;;;;;;;;;5021151;28;20041;-50
2021/05/25 12:38:05;;;;;;;3.60;0.90;;;;;;;;;;5020109;28;20050;-54
2021/05/25 12:40:33;;;;;;;1.63;0.80;;;;;;;;;;5021306;28;20095;-54
2021/05/25 12:43:35;;;;;;;3.10;0.65;;;;;;;;;;5028175;28;20045;-54
2021/05/25 12:46:08;;;;;;;2.63;0.80;;;;;;;;;;4979788;28;20149;-52
2021/05/25 12:48:39;;;;;;;2.13;0.70;;;;;;;;;;5023575;28;20053;-50
2021/05/25 12:51:10;;;;;;;1.88;0.68;;;;;;;;;;5023001;28;20052;-53
2021/05/25 12:54:06;;;;;;;2.10;1.05;;;;;;;;;;5024520;28;20076;-53
2021/05/25 12:56:33;;;;;;;2.53;0.63;;;;;;;;;;5002658;28;20049;-54
2021/05/25 12:59:00;;;;;;;1.70;0.70;;;;;;;;;;5022337;28;20049;-58
2021/05/25 13:01:33;;;;;;;3.00;0.80;;;;;;;;;;5024687;28;20053;-56
2021/05/25 13:04:06;;;;;;;3.60;0.77;;;;;;;;;;5027127;28;20053;-57
2021/05/25 13:07:05;;;;;;;1.98;0.50;;;;;;;;;;5019548;28;20815;-55
2021/05/25 13:09:41;;;;;;;2.22;0.90;;;;;;;;;;5023307;28;20045;-58
2021/05/25 13:12:12;;;;;;;3.85;1.00;;;;;;;;;;5022656;28;20043;-50
2021/05/25 13:14:42;;;;;;;3.28;0.60;;;;;;;;;;5022348;28;20461;-52
2021/05/25 13:17:13;;;;;;;3.83;1.00;;;;;;;;;;5023672;28;20116;-54
2021/05/25 13:19:39;;;;;;;1.85;0.60;;;;;;;;;;4996549;28;20160;-54
2021/05/25 13:22:10;;;;;;;1.55;0.52;;;;;;;;;;5024594;28;20050;-51
2021/05/25 13:24:56;;;;;;;3.90;0.80;;;;;;;;;;5022450;28;20080;-55
2021/05/25 13:27:26;;;;;;;5.93;0.85;;;;;;;;;;5023786;28;20575;-58
2021/05/25 13:30:04;;;;;;;2.08;0.70;;;;;;;;;;5021412;28;20076;-56
2021/05/25 13:32:33;;;;;;;1.48;0.70;;;;;;;;;;5022375;28;20083;-58
2021/05/25 13:35:02;;;;;;;2.00;0.80;;;;;;;;;;5006065;28;20041;-54
2021/05/25 13:37:29;;;;;;;2.22;0.82;;;;;;;;;;5016230;28;20048;-51
2021/05/25 13:39:59;;;;;;;4.78;1.10;;;;;;;;;;5022408;28;20065;-56
2021/05/25 13:42:26;;;;;;;3.50;0.70;;;;;;;;;;5022044;28;20458;-59
2021/05/25 13:44:53;;;;;;;4.47;1.20;;;;;;;;;;5023123;28;20056;-59
2021/05/25 13:47:20;;;;;;;5.07;2.03;;;;;;;;;;5011838;28;20053;-53
2021/05/25 13:49:51;;;;;;;5.32;1.05;;;;;;;;;;5006147;28;20107;-52
2021/05/25 13:52:19;;;;;;;4.68;1.20;;;;;;;;;;5006138;28;20064;-57
2021/05/25 13:54:48;;;;;;;4.07;1.27;;;;;;;;;;5026605;28;20049;-51
2021/05/25 13:57:20;;;;;;;4.60;1.17;;;;;;;;;;5022471;28;20522;-53
2021/05/25 14:02:14;;;;;;;3.78;0.80;;;;;;;;;;5030927;28;20565;-51
2021/05/25 14:04:40;;;;;;;4.50;1.33;;;;;;;;;;5032478;28;20049;-54
2021/05/25 14:07:12;;;;;;;6.07;0.73;;;;;;;;;;5021676;28;20056;-51
2021/05/25 14:09:39;;;;;;;6.47;0.95;;;;;;;;;;5007855;28;20515;-52
2021/05/25 14:12:06;;;;;;;4.07;0.80;;;;;;;;;;5024874;28;20500;-51
2021/05/25 14:14:33;;;;;;;2.40;0.80;;;;;;;;;;5029234;28;20065;-51
2021/05/25 14:17:00;;;;;;;2.08;0.70;;;;;;;;;;5026793;28;20242;-54
2021/05/25 14:19:26;;;;;;;7.65;0.70;;;;;;;;;;5032968;28;20511;-55
2021/05/25 14:21:53;;;;;;;3.53;1.10;;;;;;;;;;5030643;28;20046;-60
2021/05/25 14:24:20;;;;;;;6.35;1.10;;;;;;;;;;5029031;28;20077;-56
2021/05/25 14:26:47;;;;;;;5.10;0.95;;;;;;;;;;5026248;28;20430;-56
2021/05/25 14:29:14;;;;;;;1.40;0.68;;;;;;;;;;5028523;28;20575;-55
2021/05/25 14:31:44;;;;;;;2.17;0.95;;;;;;;;;;5035200;28;20100;-52
2021/05/25 14:34:11;;;;;;;2.58;0.85;;;;;;;;;;5016310;28;20053;-53
2021/05/25 14:36:38;;;;;;;3.45;1.27;;;;;;;;;;5027724;28;20054;-54
2021/05/25 14:39:05;;;;;;;2.85;0.80;;;;;;;;;;5029635;28;20084;-54
2021/05/25 14:41:32;;;;;;;2.47;0.70;;;;;;;;;;4998327;28;20073;-58
2021/05/25 14:43:59;;;;;;;3.70;0.73;;;;;;;;;;4966221;28;20478;-57
2021/05/25 14:46:27;;;;;;;2.50;0.80;;;;;;;;;;5014730;28;20096;-58
2021/05/25 14:48:54;;;;;;;2.42;0.73;;;;;;;;;;5024265;28;20046;-54
2021/05/25 14:51:22;;;;;;;1.23;0.68;;;;;;;;;;5031502;28;20053;-53
2021/05/25 14:53:53;;;;;;;5.38;1.92;;;;;;;;;;5028567;28;20038;-52
2021/05/25 14:56:24;;;;;;;4.85;2.28;;;;;;;;;;5022777;28;20107;-54
2021/05/25 14:58:54;;;;;;;2.28;0.80;;;;;;;;;;5024608;28;20057;-54
2021/05/25 15:01:22;;;;;;;4.10;0.90;;;;;;;;;;5029244;28;20128;-52
2021/05/25 15:03:58;;;;;;;1.70;0.88;;;;;;;;;;5025081;28;20057;-52